Time;durP1;ratioP1;P1;durP2;ratioP2;P2;SDS_P1;SDS_P2;PMS_P1;PMS_P2;Temp;Humidity;BMP_temperature;BMP_pressure;BME280_temperature;BME280_humidity;BME280_pressure;Samples;Min_cycle;Max_cycle;Signal;HPM_P1;HPM_P2
2022/09/07 00:01:55;;;;;;;4.80;2.17;;;;;;;;;;4979623;28;20181;-66
2022/09/07 00:04:21;;;;;;;4.93;2.53;;;;;;;;;;4997063;28;20666;-67
2022/09/07 00:06:47;;;;;;;5.60;2.53;;;;;;;;;;4979358;28;20726;-67
2022/09/07 00:09:13;;;;;;;5.40;2.93;;;;;;;;;;4997238;28;20193;-66
2022/09/07 00:11:39;;;;;;;3.30;2.67;;;;;;;;;;4979416;28;20276;-66
2022/09/07 00:14:06;;;;;;;6.37;2.67;;;;;;;;;;4979237;28;20291;-65
2022/09/07 00:16:32;;;;;;;8.10;3.03;;;;;;;;;;4996623;28;20204;-67
2022/09/07 00:19:00;;;;;;;7.60;3.93;;;;;;;;;;4997165;28;20176;-67
2022/09/07 00:21:27;;;;;;;5.63;3.27;;;;;;;;;;4996560;28;20177;-66
2022/09/07 00:23:54;;;;;;;6.47;2.80;;;;;;;;;;4979101;28;20193;-67
2022/09/07 00:26:21;;;;;;;5.23;2.80;;;;;;;;;;4996762;28;20185;-66
2022/09/07 00:28:47;;;;;;;6.57;2.70;;;;;;;;;;4996712;28;20641;-66
2022/09/07 00:31:18;;;;;;;7.13;3.43;;;;;;;;;;4996585;28;20215;-66
2022/09/07 00:33:44;;;;;;;8.93;4.07;;;;;;;;;;4978864;28;20199;-67
2022/09/07 00:36:11;;;;;;;12.13;4.17;;;;;;;;;;4996422;28;20177;-67
2022/09/07 00:38:37;;;;;;;12.57;4.20;;;;;;;;;;4978752;28;20228;-66
2022/09/07 00:41:03;;;;;;;14.33;3.70;;;;;;;;;;4996520;28;20177;-67
2022/09/07 00:43:32;;;;;;;4.30;3.00;;;;;;;;;;4996169;28;20196;-67
2022/09/07 00:45:58;;;;;;;6.50;3.33;;;;;;;;;;4996131;28;20195;-66
2022/09/07 00:48:27;;;;;;;4.20;3.03;;;;;;;;;;4995768;28;20201;-67
2022/09/07 00:50:55;;;;;;;10.93;4.10;;;;;;;;;;4996105;28;20181;-67
2022/09/07 00:53:27;;;;;;;6.23;3.90;;;;;;;;;;4996031;28;20204;-67
2022/09/07 00:55:53;;;;;;;13.53;4.83;;;;;;;;;;4996056;28;20216;-67
2022/09/07 00:58:21;;;;;;;11.03;5.40;;;;;;;;;;4978487;28;20204;-66
2022/09/07 01:00:48;;;;;;;12.37;6.30;;;;;;;;;;4995948;28;20591;-67
2022/09/07 01:03:15;;;;;;;15.70;6.03;;;;;;;;;;4995863;28;20199;-67
2022/09/07 01:05:43;;;;;;;15.27;6.40;;;;;;;;;;4995930;28;20241;-66
2022/09/07 01:08:10;;;;;;;15.20;5.80;;;;;;;;;;4995722;28;20707;-66
2022/09/07 01:10:36;;;;;;;14.70;6.30;;;;;;;;;;4996117;28;20175;-66
2022/09/07 01:13:02;;;;;;;9.90;5.57;;;;;;;;;;4995744;28;20577;-67
2022/09/07 01:15:35;;;;;;;11.50;5.80;;;;;;;;;;4995837;28;20219;-66
2022/09/07 01:18:07;;;;;;;16.33;6.13;;;;;;;;;;4995624;28;20196;-67
2022/09/07 01:20:39;;;;;;;12.77;5.87;;;;;;;;;;4995672;28;20173;-67
2022/09/07 01:23:16;;;;;;;9.87;5.47;;;;;;;;;;4995804;28;20203;-68
2022/09/07 01:25:48;;;;;;;11.43;5.43;;;;;;;;;;4995529;28;20534;-67
2022/09/07 01:28:23;;;;;;;7.57;4.67;;;;;;;;;;4995730;28;20220;-67
2022/09/07 01:30:57;;;;;;;9.57;5.20;;;;;;;;;;4977955;28;20184;-66
2022/09/07 01:33:33;;;;;;;10.73;6.73;;;;;;;;;;4995486;28;20295;-67
2022/09/07 01:36:02;;;;;;;9.50;4.87;;;;;;;;;;4995349;28;20168;-67
2022/09/07 01:38:43;;;;;;;6.67;4.60;;;;;;;;;;4995202;28;20220;-66
2022/09/07 01:41:12;;;;;;;8.13;5.93;;;;;;;;;;4977759;28;20645;-67
2022/09/07 01:43:41;;;;;;;7.93;5.97;;;;;;;;;;4977630;28;20238;-67
2022/09/07 01:46:11;;;;;;;6.87;4.97;;;;;;;;;;4977614;28;20230;-67
2022/09/07 01:48:39;;;;;;;7.37;5.87;;;;;;;;;;4977527;28;20591;-65
2022/09/07 01:51:11;;;;;;;12.83;5.87;;;;;;;;;;4995069;28;20183;-67
2022/09/07 01:53:42;;;;;;;11.40;5.77;;;;;;;;;;4977501;28;20200;-67
2022/09/07 01:56:18;;;;;;;7.57;4.40;;;;;;;;;;4994872;28;20239;-67
2022/09/07 01:58:47;;;;;;;7.40;5.17;;;;;;;;;;4977466;28;20176;-67
2022/09/07 02:01:22;;;;;;;7.33;4.40;;;;;;;;;;4976704;28;20256;-67
2022/09/07 02:03:50;;;;;;;9.23;4.90;;;;;;;;;;4994808;28;20601;-67
2022/09/07 02:06:20;;;;;;;7.63;4.97;;;;;;;;;;4977069;28;20180;-67
2022/09/07 02:08:46;;;;;;;11.13;7.10;;;;;;;;;;4994590;28;20196;-67
2022/09/07 02:11:20;;;;;;;11.77;7.07;;;;;;;;;;4977233;28;20609;-67
2022/09/07 02:13:50;;;;;;;17.03;7.40;;;;;;;;;;4977046;28;20553;-67
2022/09/07 02:16:18;;;;;;;14.20;8.40;;;;;;;;;;4994844;28;20240;-67
2022/09/07 02:18:46;;;;;;;18.07;8.87;;;;;;;;;;4994384;28;20256;-65
2022/09/07 02:21:14;;;;;;;19.03;8.70;;;;;;;;;;4994467;28;20191;-67
2022/09/07 02:23:46;;;;;;;15.87;9.67;;;;;;;;;;4976944;28;20580;-67
2022/09/07 02:26:17;;;;;;;13.00;9.00;;;;;;;;;;4994457;28;20161;-67
2022/09/07 02:28:43;;;;;;;13.60;9.53;;;;;;;;;;4976979;28;20275;-67
2022/09/07 02:31:09;;;;;;;12.87;9.17;;;;;;;;;;4976933;28;20184;-68
2022/09/07 02:33:35;;;;;;;14.47;9.73;;;;;;;;;;4994506;28;20208;-68
2022/09/07 02:36:03;;;;;;;13.10;8.73;;;;;;;;;;4994788;28;20259;-67
2022/09/07 02:38:29;;;;;;;11.93;8.77;;;;;;;;;;4994324;28;20566;-67
2022/09/07 02:40:56;;;;;;;10.27;8.60;;;;;;;;;;4994884;28;20181;-67
2022/09/07 02:43:23;;;;;;;14.40;9.00;;;;;;;;;;4995360;28;20184;-67
2022/09/07 02:45:58;;;;;;;11.60;8.37;;;;;;;;;;4995718;28;20184;-67
2022/09/07 02:48:30;;;;;;;9.07;8.17;;;;;;;;;;4994289;28;20200;-68
2022/09/07 02:51:03;;;;;;;10.43;8.77;;;;;;;;;;4994214;28;20545;-67
2022/09/07 02:53:47;;;;;;;9.43;8.20;;;;;;;;;;4976633;28;20192;-67
2022/09/07 02:56:34;;;;;;;15.60;9.63;;;;;;;;;;5030273;23;20242;-70
2022/09/07 02:59:19;;;;;;;13.23;9.13;;;;;;;;;;5024556;28;20263;-70
2022/09/07 03:01:54;;;;;;;12.83;9.63;;;;;;;;;;5030688;28;20205;-70
2022/09/07 03:04:46;;;;;;;12.57;9.67;;;;;;;;;;5033444;28;20178;-70
2022/09/07 03:07:12;;;;;;;14.33;11.20;;;;;;;;;;5005458;28;20223;-70
2022/09/07 03:09:41;;;;;;;15.73;11.60;;;;;;;;;;5015476;28;20180;-70
2022/09/07 03:12:07;;;;;;;18.30;12.93;;;;;;;;;;5012608;28;20180;-70
2022/09/07 03:14:34;;;;;;;20.97;14.00;;;;;;;;;;5010152;28;20644;-70
2022/09/07 03:17:01;;;;;;;18.60;15.63;;;;;;;;;;5011880;28;20176;-70
2022/09/07 03:19:27;;;;;;;21.50;16.03;;;;;;;;;;5008043;28;20180;-70
2022/09/07 03:21:53;;;;;;;21.87;16.17;;;;;;;;;;5004635;28;20287;-70
2022/09/07 03:24:19;;;;;;;24.53;18.60;;;;;;;;;;5002568;28;20211;-71
2022/09/07 03:26:50;;;;;;;26.60;19.47;;;;;;;;;;5013530;28;20208;-70
2022/09/07 03:29:16;;;;;;;29.10;19.87;;;;;;;;;;5015180;28;20157;-70
2022/09/07 03:31:42;;;;;;;29.37;20.47;;;;;;;;;;5004473;28;20192;-70
2022/09/07 03:34:08;;;;;;;30.70;20.27;;;;;;;;;;5003526;28;20211;-69
2022/09/07 03:36:35;;;;;;;29.80;21.23;;;;;;;;;;5009205;28;20228;-70
2022/09/07 03:39:01;;;;;;;29.13;20.23;;;;;;;;;;5005653;28;20243;-70
2022/09/07 03:41:27;;;;;;;28.47;21.20;;;;;;;;;;5004163;28;20180;-69
2022/09/07 03:43:53;;;;;;;31.70;21.10;;;;;;;;;;5008511;28;20185;-69
2022/09/07 03:46:19;;;;;;;32.77;21.83;;;;;;;;;;5008038;28;20216;-70
2022/09/07 03:48:46;;;;;;;33.43;22.67;;;;;;;;;;5007439;28;20189;-68
2022/09/07 03:51:12;;;;;;;35.50;23.00;;;;;;;;;;5009102;28;20211;-70
2022/09/07 03:53:40;;;;;;;33.13;23.13;;;;;;;;;;5008198;28;20208;-69
2022/09/07 03:56:10;;;;;;;39.90;25.30;;;;;;;;;;5003020;28;20212;-70
2022/09/07 03:58:37;;;;;;;38.27;24.50;;;;;;;;;;5001317;28;20180;-68
2022/09/07 04:01:07;;;;;;;43.97;25.33;;;;;;;;;;5001181;28;20183;-70
2022/09/07 04:03:33;;;;;;;46.17;29.87;;;;;;;;;;5000774;28;20189;-70
2022/09/07 04:06:00;;;;;;;58.37;36.03;;;;;;;;;;5001699;28;20196;-70
2022/09/07 04:08:27;;;;;;;52.57;33.10;;;;;;;;;;5001891;28;20191;-70
2022/09/07 04:10:55;;;;;;;51.30;33.27;;;;;;;;;;5002729;28;20195;-70
2022/09/07 04:13:21;;;;;;;50.87;30.87;;;;;;;;;;5001459;28;20255;-70
2022/09/07 04:15:46;;;;;;;44.73;28.63;;;;;;;;;;5003612;28;20205;-70
2022/09/07 04:18:12;;;;;;;47.83;28.63;;;;;;;;;;5001032;28;20180;-69
2022/09/07 04:20:38;;;;;;;53.17;31.47;;;;;;;;;;4998923;28;20189;-69
2022/09/07 04:23:04;;;;;;;49.07;31.90;;;;;;;;;;4998129;28;20185;-70
2022/09/07 04:25:30;;;;;;;52.17;35.27;;;;;;;;;;4997434;28;20267;-70
2022/09/07 04:27:57;;;;;;;53.30;34.17;;;;;;;;;;4997359;28;20199;-69
2022/09/07 04:30:23;;;;;;;55.00;34.60;;;;;;;;;;4996223;28;20238;-70
2022/09/07 04:32:49;;;;;;;55.33;34.70;;;;;;;;;;4997122;28;20188;-70
2022/09/07 04:35:15;;;;;;;54.57;35.77;;;;;;;;;;4996216;28;20211;-70
2022/09/07 04:37:41;;;;;;;51.90;34.13;;;;;;;;;;4997167;28;20310;-70
2022/09/07 04:40:07;;;;;;;50.47;34.67;;;;;;;;;;4996158;28;20177;-69
2022/09/07 04:42:33;;;;;;;52.53;35.63;;;;;;;;;;4997314;28;20177;-69
2022/09/07 04:44:59;;;;;;;46.90;30.40;;;;;;;;;;4997554;28;20275;-70
2022/09/07 04:47:25;;;;;;;51.50;32.13;;;;;;;;;;4997673;28;20227;-68
2022/09/07 04:49:52;;;;;;;47.50;32.57;;;;;;;;;;4996211;28;20181;-69
2022/09/07 04:52:18;;;;;;;47.57;31.47;;;;;;;;;;4997668;28;20268;-69
2022/09/07 04:54:48;;;;;;;49.47;32.30;;;;;;;;;;4997106;28;20211;-69
2022/09/07 04:57:14;;;;;;;42.37;30.43;;;;;;;;;;4997981;28;20223;-68
2022/09/07 04:59:40;;;;;;;44.40;30.13;;;;;;;;;;4997345;28;20184;-69
2022/09/07 05:02:06;;;;;;;44.37;28.63;;;;;;;;;;4995252;28;20180;-69
2022/09/07 05:04:34;;;;;;;43.03;28.30;;;;;;;;;;4996767;28;20176;-68
2022/09/07 05:07:00;;;;;;;44.53;28.07;;;;;;;;;;4995099;28;20254;-69
2022/09/07 05:09:26;;;;;;;53.13;30.03;;;;;;;;;;4994983;28;20653;-68
2022/09/07 05:11:52;;;;;;;46.73;30.67;;;;;;;;;;4996390;28;20648;-69
2022/09/07 05:14:19;;;;;;;42.93;28.83;;;;;;;;;;4996269;28;20208;-69
2022/09/07 05:16:45;;;;;;;43.47;29.10;;;;;;;;;;4994892;28;20211;-68
2022/09/07 05:19:12;;;;;;;43.80;28.70;;;;;;;;;;4994647;28;20184;-69
2022/09/07 05:21:38;;;;;;;42.47;28.53;;;;;;;;;;4996183;28;20212;-69
2022/09/07 05:24:04;;;;;;;45.13;29.03;;;;;;;;;;4996234;28;20188;-70
2022/09/07 05:26:32;;;;;;;43.10;28.97;;;;;;;;;;4996300;28;20205;-69
2022/09/07 05:29:01;;;;;;;41.03;28.77;;;;;;;;;;4995352;28;20618;-69
2022/09/07 05:31:27;;;;;;;42.90;28.30;;;;;;;;;;4995231;28;20688;-68
2022/09/07 05:33:56;;;;;;;40.70;27.57;;;;;;;;;;4996051;28;20209;-69
2022/09/07 05:36:24;;;;;;;43.43;27.17;;;;;;;;;;4995320;28;20591;-69
2022/09/07 05:38:50;;;;;;;41.17;26.93;;;;;;;;;;4997125;28;20192;-69
2022/09/07 05:41:17;;;;;;;40.80;26.10;;;;;;;;;;4996565;28;20641;-69
2022/09/07 05:43:43;;;;;;;33.57;25.27;;;;;;;;;;4994873;28;20176;-67
2022/09/07 05:46:09;;;;;;;36.23;24.33;;;;;;;;;;4994670;28;20581;-70
2022/09/07 05:48:36;;;;;;;35.57;23.30;;;;;;;;;;4996255;28;20208;-69
2022/09/07 05:51:02;;;;;;;34.57;23.93;;;;;;;;;;4996095;28;20179;-69
2022/09/07 05:53:29;;;;;;;32.60;22.77;;;;;;;;;;4996129;28;20204;-68
2022/09/07 05:55:59;;;;;;;26.93;20.07;;;;;;;;;;4995736;28;20224;-71
2022/09/07 05:58:25;;;;;;;30.63;19.43;;;;;;;;;;4996133;28;20649;-68
2022/09/07 06:00:51;;;;;;;29.73;20.10;;;;;;;;;;4994666;28;20727;-69
2022/09/07 06:03:17;;;;;;;24.60;18.47;;;;;;;;;;4995808;28;20185;-69
2022/09/07 06:05:43;;;;;;;27.27;18.77;;;;;;;;;;4995683;28;20664;-69
2022/09/07 06:08:09;;;;;;;23.80;17.90;;;;;;;;;;4994746;28;20208;-70
2022/09/07 06:10:36;;;;;;;24.43;17.57;;;;;;;;;;4994504;28;20653;-69
2022/09/07 06:13:02;;;;;;;22.90;16.87;;;;;;;;;;4995473;28;20243;-69
2022/09/07 06:15:28;;;;;;;18.30;15.90;;;;;;;;;;4996039;28;20193;-69
2022/09/07 06:17:54;;;;;;;23.93;16.73;;;;;;;;;;4995394;28;20187;-68
2022/09/07 06:20:20;;;;;;;20.77;15.53;;;;;;;;;;4995491;28;20187;-69
2022/09/07 06:22:46;;;;;;;20.83;15.30;;;;;;;;;;4994391;28;20274;-69
2022/09/07 06:25:12;;;;;;;19.30;14.97;;;;;;;;;;4994617;28;20204;-69
2022/09/07 06:27:38;;;;;;;19.43;14.77;;;;;;;;;;4995618;28;20187;-69
2022/09/07 06:30:04;;;;;;;15.47;13.37;;;;;;;;;;4994011;28;20187;-69
2022/09/07 06:32:30;;;;;;;20.23;13.13;;;;;;;;;;4994248;28;20185;-69
2022/09/07 06:34:56;;;;;;;16.03;13.43;;;;;;;;;;4994997;28;20283;-70
2022/09/07 06:37:22;;;;;;;18.63;13.63;;;;;;;;;;4995917;28;20203;-69
2022/09/07 06:39:48;;;;;;;19.77;13.23;;;;;;;;;;4994473;28;20271;-69
2022/09/07 06:42:14;;;;;;;22.77;14.10;;;;;;;;;;4994591;28;20204;-69
2022/09/07 06:44:40;;;;;;;23.50;13.93;;;;;;;;;;4995949;28;20176;-69
2022/09/07 06:47:06;;;;;;;20.43;13.20;;;;;;;;;;4994420;28;20667;-70
2022/09/07 06:49:32;;;;;;;20.30;13.53;;;;;;;;;;4995839;28;20206;-69
2022/09/07 06:51:58;;;;;;;17.20;13.37;;;;;;;;;;4996671;28;20256;-69
2022/09/07 06:54:24;;;;;;;15.50;12.00;;;;;;;;;;4996582;28;20208;-69
2022/09/07 06:56:50;;;;;;;14.47;12.10;;;;;;;;;;4996631;28;20223;-69
2022/09/07 06:59:16;;;;;;;12.53;10.67;;;;;;;;;;4998093;28;20204;-69
2022/09/07 07:01:42;;;;;;;14.27;11.27;;;;;;;;;;4997261;28;20523;-70
2022/09/07 07:04:08;;;;;;;13.53;11.97;;;;;;;;;;5001333;28;20215;-69
2022/09/07 07:06:35;;;;;;;13.43;11.83;;;;;;;;;;4997780;28;20744;-70
2022/09/07 07:09:01;;;;;;;16.47;12.93;;;;;;;;;;4998582;28;20271;-69
2022/09/07 07:11:29;;;;;;;18.73;12.43;;;;;;;;;;4998813;28;20245;-69
2022/09/07 07:13:55;;;;;;;16.37;13.23;;;;;;;;;;4998473;28;20291;-69
2022/09/07 07:16:21;;;;;;;20.37;13.73;;;;;;;;;;5000137;28;20239;-69
2022/09/07 07:18:51;;;;;;;16.63;13.30;;;;;;;;;;5007868;28;20180;-69
2022/09/07 07:21:17;;;;;;;16.20;13.07;;;;;;;;;;5004131;28;20172;-69
2022/09/07 07:23:43;;;;;;;14.13;12.13;;;;;;;;;;5006076;28;20176;-69
2022/09/07 07:26:17;;;;;;;17.47;11.43;;;;;;;;;;5003379;28;20580;-69
2022/09/07 07:28:44;;;;;;;11.67;10.07;;;;;;;;;;5004210;28;20203;-69
2022/09/07 07:31:10;;;;;;;10.33;8.63;;;;;;;;;;5004769;28;20191;-70
2022/09/07 07:33:36;;;;;;;13.40;8.40;;;;;;;;;;5006618;28;20266;-69
2022/09/07 07:36:09;;;;;;;9.60;8.60;;;;;;;;;;5005918;28;20196;-69
2022/09/07 07:38:35;;;;;;;11.87;8.97;;;;;;;;;;5006893;28;20188;-69
2022/09/07 07:41:01;;;;;;;10.63;7.87;;;;;;;;;;5004949;28;20649;-70
2022/09/07 07:43:27;;;;;;;13.27;7.87;;;;;;;;;;5008895;28;20236;-70
2022/09/07 07:45:54;;;;;;;10.40;7.90;;;;;;;;;;5005517;28;20196;-69
2022/09/07 07:48:20;;;;;;;9.83;7.70;;;;;;;;;;5006128;28;20181;-70
2022/09/07 07:50:56;;;;;;;10.13;7.47;;;;;;;;;;5006547;28;20547;-70
2022/09/07 07:53:22;;;;;;;10.30;6.67;;;;;;;;;;5006940;28;20192;-69
2022/09/07 07:55:48;;;;;;;9.47;6.43;;;;;;;;;;5008372;28;20220;-70
2022/09/07 07:58:14;;;;;;;12.57;7.30;;;;;;;;;;5009739;28;20232;-70
2022/09/07 08:00:40;;;;;;;8.63;5.93;;;;;;;;;;5014275;28;20184;-71
2022/09/07 08:03:06;;;;;;;11.00;6.13;;;;;;;;;;5009111;28;20184;-71
2022/09/07 08:05:34;;;;;;;11.27;6.23;;;;;;;;;;5007141;28;20207;-70
2022/09/07 08:08:00;;;;;;;9.20;5.97;;;;;;;;;;5004265;28;20239;-70
2022/09/07 08:10:28;;;;;;;15.47;6.60;;;;;;;;;;5004680;28;20188;-70
2022/09/07 08:12:54;;;;;;;7.70;6.20;;;;;;;;;;5004930;28;20180;-70
2022/09/07 08:15:20;;;;;;;9.53;7.33;;;;;;;;;;5005215;28;20634;-70
2022/09/07 08:17:49;;;;;;;11.87;6.87;;;;;;;;;;5005803;28;20683;-70
2022/09/07 08:20:15;;;;;;;12.83;7.10;;;;;;;;;;5004129;28;20187;-70
2022/09/07 08:22:41;;;;;;;10.87;7.90;;;;;;;;;;5003530;28;20231;-70
2022/09/07 08:25:08;;;;;;;12.67;8.20;;;;;;;;;;5002566;28;20204;-69
2022/09/07 08:27:34;;;;;;;9.10;8.07;;;;;;;;;;5002872;28;20181;-71
2022/09/07 08:30:00;;;;;;;11.53;7.97;;;;;;;;;;5002484;28;20180;-69
2022/09/07 08:32:28;;;;;;;9.00;7.30;;;;;;;;;;5006112;28;20184;-70
2022/09/07 08:34:55;;;;;;;11.07;8.10;;;;;;;;;;5008905;28;20216;-70
2022/09/07 08:37:21;;;;;;;9.53;8.53;;;;;;;;;;5009914;28;20173;-69
2022/09/07 08:39:47;;;;;;;9.67;7.97;;;;;;;;;;5007651;28;20172;-69
2022/09/07 08:42:25;;;;;;;10.00;8.20;;;;;;;;;;5004261;28;20648;-70
2022/09/07 08:45:00;;;;;;;11.17;8.57;;;;;;;;;;5003041;28;20195;-68
2022/09/07 08:47:36;;;;;;;12.07;9.97;;;;;;;;;;5002975;28;20261;-70
2022/09/07 08:50:02;;;;;;;11.63;10.43;;;;;;;;;;5003069;28;20189;-70
2022/09/07 08:52:33;;;;;;;14.13;10.60;;;;;;;;;;5005734;28;20235;-69
2022/09/07 08:55:01;;;;;;;13.40;11.40;;;;;;;;;;5005651;28;20282;-68
2022/09/07 08:57:30;;;;;;;14.33;11.60;;;;;;;;;;5022748;23;20234;-68
2022/09/07 09:00:04;;;;;;;12.53;11.33;;;;;;;;;;5015394;28;20536;-69
2022/09/07 09:02:30;;;;;;;13.47;10.73;;;;;;;;;;5015983;28;20159;-68
2022/09/07 09:04:57;;;;;;;12.90;11.33;;;;;;;;;;5015456;28;20172;-68
2022/09/07 09:07:42;;;;;;;12.87;11.30;;;;;;;;;;5014152;28;20211;-68
2022/09/07 09:10:26;;;;;;;12.73;10.37;;;;;;;;;;5015213;28;20180;-68
2022/09/07 09:12:55;;;;;;;15.90;10.40;;;;;;;;;;5015290;28;20660;-68
2022/09/07 09:15:25;;;;;;;11.33;10.13;;;;;;;;;;5015614;28;20754;-68
2022/09/07 09:17:57;;;;;;;10.93;9.70;;;;;;;;;;5015473;28;20715;-68
2022/09/07 09:20:23;;;;;;;12.53;8.87;;;;;;;;;;5015197;28;20214;-68
2022/09/07 09:22:50;;;;;;;17.97;9.33;;;;;;;;;;5015503;28;20180;-68
2022/09/07 09:25:21;;;;;;;9.70;8.70;;;;;;;;;;5013956;28;20186;-68
2022/09/07 09:27:48;;;;;;;8.90;8.10;;;;;;;;;;5015173;28;20200;-68
2022/09/07 09:30:15;;;;;;;11.27;8.53;;;;;;;;;;5015014;28;20263;-68
2022/09/07 09:32:42;;;;;;;9.90;8.90;;;;;;;;;;5015104;28;20731;-68
2022/09/07 09:35:31;;;;;;;9.63;8.40;;;;;;;;;;5013616;28;20231;-68
2022/09/07 09:37:57;;;;;;;10.20;9.20;;;;;;;;;;5015213;28;20571;-67
2022/09/07 09:40:26;;;;;;;11.03;8.27;;;;;;;;;;5015230;28;20267;-67
2022/09/07 09:42:59;;;;;;;9.67;8.23;;;;;;;;;;5014742;28;20703;-67
2022/09/07 09:45:27;;;;;;;12.03;7.93;;;;;;;;;;5013367;28;20648;-67
2022/09/07 09:47:53;;;;;;;9.40;8.03;;;;;;;;;;5014613;28;20206;-67
2022/09/07 09:50:30;;;;;;;8.50;7.70;;;;;;;;;;5014616;28;20619;-67
2022/09/07 09:52:56;;;;;;;13.20;8.23;;;;;;;;;;5013322;28;20180;-67
2022/09/07 09:55:27;;;;;;;9.93;8.50;;;;;;;;;;5014861;28;20610;-67
2022/09/07 09:57:52;;;;;;;9.00;8.10;;;;;;;;;;5014329;28;20635;-67
2022/09/07 10:00:20;;;;;;;11.70;8.20;;;;;;;;;;5014632;28;20182;-67
2022/09/07 10:03:06;;;;;;;9.37;7.87;;;;;;;;;;5013138;28;20172;-67
2022/09/07 10:05:32;;;;;;;9.23;8.20;;;;;;;;;;5014607;28;20286;-67
2022/09/07 10:07:59;;;;;;;12.00;8.63;;;;;;;;;;5014288;28;20250;-67
2022/09/07 10:10:26;;;;;;;10.13;8.80;;;;;;;;;;5014620;28;20186;-67
2022/09/07 10:12:53;;;;;;;10.87;9.23;;;;;;;;;;5013060;28;20207;-67
2022/09/07 10:15:35;;;;;;;9.70;8.77;;;;;;;;;;5014397;28;20249;-67
2022/09/07 10:18:04;;;;;;;9.77;8.77;;;;;;;;;;5014149;28;20199;-67
2022/09/07 10:20:37;;;;;;;9.50;8.50;;;;;;;;;;5014157;28;20172;-67
2022/09/07 10:23:04;;;;;;;9.60;8.60;;;;;;;;;;5013815;28;20202;-67
2022/09/07 10:25:32;;;;;;;10.50;9.40;;;;;;;;;;5014093;28;20176;-67
2022/09/07 10:28:11;;;;;;;10.40;8.17;;;;;;;;;;5013881;28;20196;-67
2022/09/07 10:30:56;;;;;;;8.93;8.13;;;;;;;;;;5014024;28;20694;-67
2022/09/07 10:33:40;;;;;;;8.67;7.77;;;;;;;;;;5013795;28;20208;-67
2022/09/07 10:36:18;;;;;;;9.00;7.97;;;;;;;;;;5013891;28;20713;-67
2022/09/07 10:38:50;;;;;;;11.73;9.03;;;;;;;;;;5013854;28;20569;-67
2022/09/07 10:41:17;;;;;;;9.87;8.60;;;;;;;;;;5014029;28;20160;-67
2022/09/07 10:43:44;;;;;;;10.23;9.20;;;;;;;;;;5013808;28;20188;-67
2022/09/07 10:46:17;;;;;;;10.47;9.47;;;;;;;;;;5013726;28;20191;-67
2022/09/07 10:48:51;;;;;;;10.40;9.40;;;;;;;;;;5013950;28;20191;-67
2022/09/07 10:51:21;;;;;;;10.73;9.27;;;;;;;;;;5013680;28;20621;-67
2022/09/07 10:53:59;;;;;;;10.73;9.07;;;;;;;;;;5013751;28;20188;-67
2022/09/07 10:56:45;;;;;;;9.80;8.60;;;;;;;;;;5013510;28;20176;-65
2022/09/07 10:59:30;;;;;;;9.63;8.77;;;;;;;;;;5013703;28;20219;-67
2022/09/07 11:02:15;;;;;;;10.27;9.23;;;;;;;;;;5013518;28;20180;-67
2022/09/07 11:04:46;;;;;;;11.63;10.43;;;;;;;;;;5013698;28;20282;-67
2022/09/07 11:07:35;;;;;;;10.00;8.97;;;;;;;;;;5013619;28;20199;-67
2022/09/07 11:10:07;;;;;;;11.37;8.93;;;;;;;;;;5012452;28;20176;-67
2022/09/07 11:12:35;;;;;;;11.13;10.03;;;;;;;;;;5013643;28;20241;-67
2022/09/07 11:15:09;;;;;;;13.63;10.03;;;;;;;;;;5013398;28;20192;-67
2022/09/07 11:17:47;;;;;;;11.33;10.23;;;;;;;;;;5013258;28;20199;-66
2022/09/07 11:20:18;;;;;;;12.60;10.87;;;;;;;;;;5013263;28;20211;-67
2022/09/07 11:22:47;;;;;;;18.57;10.50;;;;;;;;;;5013587;28;20195;-67
2022/09/07 11:25:13;;;;;;;11.47;10.33;;;;;;;;;;5013287;28;20184;-67
2022/09/07 11:27:42;;;;;;;15.50;9.90;;;;;;;;;;5013124;28;20554;-67
2022/09/07 11:30:21;;;;;;;12.37;9.83;;;;;;;;;;5011897;28;20180;-67
2022/09/07 11:32:57;;;;;;;11.70;10.60;;;;;;;;;;5012720;28;20190;-67
2022/09/07 11:35:24;;;;;;;13.07;9.70;;;;;;;;;;5017268;28;20190;-67
2022/09/07 11:37:58;;;;;;;11.93;10.23;;;;;;;;;;5017200;28;20198;-67
2022/09/07 11:40:24;;;;;;;12.23;9.90;;;;;;;;;;5017385;28;20167;-67
2022/09/07 11:42:58;;;;;;;10.17;8.60;;;;;;;;;;5017201;28;20255;-67
2022/09/07 11:45:38;;;;;;;11.53;8.70;;;;;;;;;;5017510;28;20254;-67
2022/09/07 11:48:11;;;;;;;10.97;8.93;;;;;;;;;;5017160;28;20571;-67
2022/09/07 11:50:42;;;;;;;8.03;7.13;;;;;;;;;;5017126;28;20212;-67
2022/09/07 11:53:13;;;;;;;9.40;7.83;;;;;;;;;;5017686;28;20175;-67
2022/09/07 11:55:40;;;;;;;9.93;8.63;;;;;;;;;;5017536;28;20239;-67
2022/09/07 11:58:15;;;;;;;9.13;8.20;;;;;;;;;;5015834;28;20222;-67
2022/09/07 12:00:47;;;;;;;11.07;8.60;;;;;;;;;;5017068;28;20179;-67
2022/09/07 12:03:25;;;;;;;9.83;8.40;;;;;;;;;;5017949;28;20169;-67
2022/09/07 12:06:01;;;;;;;12.17;8.87;;;;;;;;;;5018033;28;20231;-67
2022/09/07 12:08:30;;;;;;;10.70;8.13;;;;;;;;;;5015797;28;20282;-67
2022/09/07 12:11:07;;;;;;;10.63;8.30;;;;;;;;;;5016931;28;20176;-67
2022/09/07 12:13:39;;;;;;;10.43;8.70;;;;;;;;;;5016951;28;20274;-67
2022/09/07 12:16:10;;;;;;;9.93;8.37;;;;;;;;;;5016588;28;20180;-67
2022/09/07 12:18:40;;;;;;;9.03;7.17;;;;;;;;;;5016385;28;20195;-66
2022/09/07 12:21:25;;;;;;;10.07;8.93;;;;;;;;;;5016586;28;20176;-67
2022/09/07 12:23:51;;;;;;;11.00;7.67;;;;;;;;;;5017196;28;20520;-67
2022/09/07 12:26:33;;;;;;;12.30;8.27;;;;;;;;;;5016148;28;20238;-66
2022/09/07 12:28:58;;;;;;;9.67;8.00;;;;;;;;;;5015061;28;20194;-66
2022/09/07 12:31:43;;;;;;;9.50;8.37;;;;;;;;;;5016325;28;20259;-67
2022/09/07 12:34:28;;;;;;;13.40;6.73;;;;;;;;;;5016471;28;20211;-67
2022/09/07 12:36:54;;;;;;;9.80;7.50;;;;;;;;;;5016103;28;20677;-67
2022/09/07 12:39:24;;;;;;;10.73;7.83;;;;;;;;;;5014942;28;20191;-67
2022/09/07 12:41:53;;;;;;;10.80;8.40;;;;;;;;;;5016225;28;20203;-67
2022/09/07 12:44:21;;;;;;;9.13;7.20;;;;;;;;;;5015374;28;20184;-67
2022/09/07 12:46:48;;;;;;;9.70;6.57;;;;;;;;;;5015896;28;20236;-67
2022/09/07 12:49:33;;;;;;;7.60;5.87;;;;;;;;;;5015893;28;20179;-67
2022/09/07 12:52:05;;;;;;;8.00;7.17;;;;;;;;;;5016130;28;20222;-67
2022/09/07 12:54:38;;;;;;;7.17;6.10;;;;;;;;;;5014373;28;20203;-67
2022/09/07 12:57:15;;;;;;;8.63;6.10;;;;;;;;;;5015555;28;20215;-67
2022/09/07 12:59:50;;;;;;;8.43;6.60;;;;;;;;;;5014460;28;20186;-67
2022/09/07 13:02:31;;;;;;;6.67;5.27;;;;;;;;;;5015864;28;20254;-67
2022/09/07 13:05:16;;;;;;;12.47;5.47;;;;;;;;;;5015785;28;20238;-65
2022/09/07 13:08:01;;;;;;;7.70;5.20;;;;;;;;;;5015599;28;20287;-66
2022/09/07 13:10:37;;;;;;;6.83;4.60;;;;;;;;;;5015665;28;20187;-65
2022/09/07 13:13:24;;;;;;;6.80;4.73;;;;;;;;;;5015183;28;20549;-65
2022/09/07 13:16:06;;;;;;;5.80;4.50;;;;;;;;;;5014155;28;20206;-65
2022/09/07 13:18:34;;;;;;;3.97;3.40;;;;;;;;;;5013994;28;20573;-65
2022/09/07 13:21:07;;;;;;;5.00;3.73;;;;;;;;;;5014347;28;20553;-65
2022/09/07 13:23:36;;;;;;;4.53;2.93;;;;;;;;;;5015557;28;20176;-66
2022/09/07 13:26:04;;;;;;;6.90;3.90;;;;;;;;;;5015539;28;20210;-66
2022/09/07 13:28:48;;;;;;;5.03;3.40;;;;;;;;;;5015457;28;20295;-66
2022/09/07 13:31:29;;;;;;;4.77;3.33;;;;;;;;;;5014117;28;20180;-66
2022/09/07 13:33:56;;;;;;;3.90;3.20;;;;;;;;;;5015221;28;20199;-67
2022/09/07 13:36:45;;;;;;;6.87;2.83;;;;;;;;;;5015014;28;20168;-65
2022/09/07 13:39:13;;;;;;;5.87;3.00;;;;;;;;;;5014892;28;20623;-66
2022/09/07 13:41:46;;;;;;;4.03;2.30;;;;;;;;;;5013877;28;20571;-67
2022/09/07 13:44:22;;;;;;;5.47;2.20;;;;;;;;;;5014888;28;20189;-67
2022/09/07 13:46:53;;;;;;;2.43;2.17;;;;;;;;;;5013447;28;20283;-67
2022/09/07 13:49:38;;;;;;;6.33;2.47;;;;;;;;;;5015525;28;20174;-66
2022/09/07 13:52:12;;;;;;;3.57;2.20;;;;;;;;;;5015174;28;20568;-66
2022/09/07 13:54:46;;;;;;;7.30;2.47;;;;;;;;;;5014935;28;20268;-66
2022/09/07 13:57:20;;;;;;;3.70;1.70;;;;;;;;;;5012678;28;20220;-66
2022/09/07 13:59:48;;;;;;;4.27;1.80;;;;;;;;;;5014616;28;20163;-66
2022/09/07 14:02:26;;;;;;;2.73;1.80;;;;;;;;;;5014891;28;20692;-65
2022/09/07 14:04:53;;;;;;;4.50;2.00;;;;;;;;;;5013145;28;20171;-66
2022/09/07 14:07:21;;;;;;;2.13;1.77;;;;;;;;;;5014249;28;20575;-67
2022/09/07 14:09:47;;;;;;;4.10;1.87;;;;;;;;;;5014556;28;20187;-66
2022/09/07 14:12:19;;;;;;;2.40;1.77;;;;;;;;;;5013646;28;20246;-66
2022/09/07 14:14:45;;;;;;;7.10;1.90;;;;;;;;;;5014293;28;20202;-66
2022/09/07 14:17:15;;;;;;;3.70;2.00;;;;;;;;;;5014345;28;20199;-66
2022/09/07 14:19:48;;;;;;;4.27;2.03;;;;;;;;;;5012952;28;20263;-66
2022/09/07 14:22:14;;;;;;;4.93;1.93;;;;;;;;;;5015576;28;20628;-66
2022/09/07 14:24:46;;;;;;;4.37;2.20;;;;;;;;;;5014198;28;20183;-66
2022/09/07 14:27:31;;;;;;;3.00;2.10;;;;;;;;;;5014371;28;20206;-67
2022/09/07 14:30:21;;;;;;;3.20;2.07;;;;;;;;;;5015549;28;20184;-66
2022/09/07 14:32:51;;;;;;;2.00;1.77;;;;;;;;;;5016189;28;20242;-66
2022/09/07 14:35:19;;;;;;;3.53;1.70;;;;;;;;;;5014640;28;20202;-66
2022/09/07 14:37:45;;;;;;;2.75;1.70;;;;;;;;;;5013834;28;20576;-67
2022/09/07 14:40:22;;;;;;;4.10;2.17;;;;;;;;;;5013988;28;20187;-67
2022/09/07 14:42:49;;;;;;;4.18;1.73;;;;;;;;;;5014299;28;20532;-66
2022/09/07 14:45:16;;;;;;;2.57;1.60;;;;;;;;;;5012485;28;20179;-67
2022/09/07 14:47:42;;;;;;;2.70;1.40;;;;;;;;;;5013562;28;20199;-66